sensor_id;sensor_type;location;lat;lon;timestamp;P1;durP1;ratioP1;P2;durP2;ratioP2
1569;SDS011;778;50.120;8.698;2023-04-01T00:01:14;3.00;;;1.63;;
1569;SDS011;778;50.120;8.698;2023-04-01T00:03:43;4.00;;;1.30;;
1569;SDS011;778;50.120;8.698;2023-04-01T00:06:13;2.90;;;1.40;;
1569;SDS011;778;50.120;8.698;2023-04-01T00:08:43;4.00;;;1.23;;
1569;SDS011;778;50.120;8.698;2023-04-01T00:11:12;6.40;;;1.50;;
1569;SDS011;778;50.120;8.698;2023-04-01T00:13:41;2.83;;;1.10;;
1569;SDS011;778;50.120;8.698;2023-04-01T00:16:09;4.43;;;1.67;;
1569;SDS011;778;50.120;8.698;2023-04-01T00:18:49;2.50;;;1.30;;
1569;SDS011;778;50.120;8.698;2023-04-01T00:21:18;3.50;;;1.10;;
1569;SDS011;778;50.120;8.698;2023-04-01T00:23:48;5.60;;;1.27;;
1569;SDS011;778;50.120;8.698;2023-04-01T00:26:17;4.43;;;1.13;;
1569;SDS011;778;50.120;8.698;2023-04-01T00:28:48;3.23;;;1.30;;
1569;SDS011;778;50.120;8.698;2023-04-01T00:31:16;3.50;;;1.57;;
1569;SDS011;778;50.120;8.698;2023-04-01T00:33:45;2.50;;;1.07;;
1569;SDS011;778;50.120;8.698;2023-04-01T00:36:16;2.77;;;1.47;;
1569;SDS011;778;50.120;8.698;2023-04-01T00:38:48;3.40;;;1.50;;
1569;SDS011;778;50.120;8.698;2023-04-01T00:41:18;2.20;;;1.47;;
1569;SDS011;778;50.120;8.698;2023-04-01T00:43:48;4.30;;;1.23;;
1569;SDS011;778;50.120;8.698;2023-04-01T00:46:18;5.50;;;1.47;;
1569;SDS011;778;50.120;8.698;2023-04-01T00:48:48;5.77;;;1.73;;
1569;SDS011;778;50.120;8.698;2023-04-01T00:51:21;5.00;;;1.23;;
1569;SDS011;778;50.120;8.698;2023-04-01T00:53:55;5.40;;;1.87;;
1569;SDS011;778;50.120;8.698;2023-04-01T00:56:30;4.47;;;1.30;;
1569;SDS011;778;50.120;8.698;2023-04-01T00:59:04;2.50;;;1.40;;
1569;SDS011;778;50.120;8.698;2023-04-01T01:01:37;4.43;;;1.23;;
1569;SDS011;778;50.120;8.698;2023-04-01T01:04:06;1.83;;;1.30;;
1569;SDS011;778;50.120;8.698;2023-04-01T01:06:42;2.27;;;1.20;;
1569;SDS011;778;50.120;8.698;2023-04-01T01:09:25;3.47;;;1.30;;
1569;SDS011;778;50.120;8.698;2023-04-01T01:12:05;3.60;;;1.67;;
1569;SDS011;778;50.120;8.698;2023-04-01T01:14:42;6.23;;;1.37;;
1569;SDS011;778;50.120;8.698;2023-04-01T01:17:32;1.57;;;1.27;;
1569;SDS011;778;50.120;8.698;2023-04-01T01:20:22;4.90;;;2.23;;
1569;SDS011;778;50.120;8.698;2023-04-01T01:23:32;4.60;;;2.17;;
1569;SDS011;778;50.120;8.698;2023-04-01T01:26:37;1.90;;;1.00;;
1569;SDS011;778;50.120;8.698;2023-04-01T01:32:44;2.30;;;1.00;;
1569;SDS011;778;50.120;8.698;2023-04-01T01:35:59;2.60;;;1.33;;
1569;SDS011;778;50.120;8.698;2023-04-01T01:38:33;8.03;;;1.50;;
1569;SDS011;778;50.120;8.698;2023-04-01T01:41:04;1.53;;;1.00;;
1569;SDS011;778;50.120;8.698;2023-04-01T01:43:35;3.03;;;1.33;;
1569;SDS011;778;50.120;8.698;2023-04-01T01:46:08;6.87;;;1.57;;
1569;SDS011;778;50.120;8.698;2023-04-01T01:48:40;7.07;;;1.67;;
1569;SDS011;778;50.120;8.698;2023-04-01T01:51:12;2.67;;;1.53;;
1569;SDS011;778;50.120;8.698;2023-04-01T01:53:40;3.57;;;1.43;;
1569;SDS011;778;50.120;8.698;2023-04-01T01:56:09;6.40;;;1.13;;
1569;SDS011;778;50.120;8.698;2023-04-01T01:58:42;2.40;;;0.97;;
1569;SDS011;778;50.120;8.698;2023-04-01T02:01:16;4.73;;;1.30;;
1569;SDS011;778;50.120;8.698;2023-04-01T02:03:49;2.40;;;1.03;;
1569;SDS011;778;50.120;8.698;2023-04-01T02:06:21;3.10;;;1.10;;
1569;SDS011;778;50.120;8.698;2023-04-01T02:08:52;6.37;;;1.20;;
1569;SDS011;778;50.120;8.698;2023-04-01T02:11:24;3.80;;;1.00;;
1569;SDS011;778;50.120;8.698;2023-04-01T02:13:59;1.87;;;1.00;;
1569;SDS011;778;50.120;8.698;2023-04-01T02:16:33;3.63;;;1.17;;
1569;SDS011;778;50.120;8.698;2023-04-01T02:19:07;4.73;;;0.93;;
1569;SDS011;778;50.120;8.698;2023-04-01T02:21:39;3.63;;;1.30;;
1569;SDS011;778;50.120;8.698;2023-04-01T02:24:11;3.67;;;1.30;;
1569;SDS011;778;50.120;8.698;2023-04-01T02:26:42;2.60;;;0.80;;
1569;SDS011;778;50.120;8.698;2023-04-01T02:29:12;1.93;;;1.23;;
1569;SDS011;778;50.120;8.698;2023-04-01T02:31:42;5.20;;;1.37;;
1569;SDS011;778;50.120;8.698;2023-04-01T02:34:10;4.20;;;1.10;;
1569;SDS011;778;50.120;8.698;2023-04-01T02:36:41;3.07;;;1.10;;
1569;SDS011;778;50.120;8.698;2023-04-01T02:39:11;2.50;;;1.20;;
1569;SDS011;778;50.120;8.698;2023-04-01T02:41:40;6.00;;;1.70;;
1569;SDS011;778;50.120;8.698;2023-04-01T02:44:10;5.53;;;1.23;;
1569;SDS011;778;50.120;8.698;2023-04-01T02:46:42;3.90;;;1.60;;
1569;SDS011;778;50.120;8.698;2023-04-01T02:49:11;2.10;;;1.00;;
1569;SDS011;778;50.120;8.698;2023-04-01T02:51:40;2.00;;;0.97;;
1569;SDS011;778;50.120;8.698;2023-04-01T02:54:09;4.13;;;1.00;;
1569;SDS011;778;50.120;8.698;2023-04-01T02:56:38;4.17;;;1.00;;
1569;SDS011;778;50.120;8.698;2023-04-01T02:59:06;4.90;;;1.20;;
1569;SDS011;778;50.120;8.698;2023-04-01T03:01:35;4.57;;;1.60;;
1569;SDS011;778;50.120;8.698;2023-04-01T03:04:03;3.77;;;1.00;;
1569;SDS011;778;50.120;8.698;2023-04-01T03:06:32;3.13;;;0.90;;
1569;SDS011;778;50.120;8.698;2023-04-01T03:09:02;3.30;;;1.07;;
1569;SDS011;778;50.120;8.698;2023-04-01T03:11:30;2.13;;;1.00;;
1569;SDS011;778;50.120;8.698;2023-04-01T03:13:59;2.73;;;1.00;;
1569;SDS011;778;50.120;8.698;2023-04-01T03:16:27;2.23;;;1.00;;
1569;SDS011;778;50.120;8.698;2023-04-01T03:18:56;2.50;;;1.10;;
1569;SDS011;778;50.120;8.698;2023-04-01T03:21:26;3.17;;;1.10;;
1569;SDS011;778;50.120;8.698;2023-04-01T03:23:54;3.00;;;0.90;;
1569;SDS011;778;50.120;8.698;2023-04-01T03:26:24;3.40;;;1.20;;
1569;SDS011;778;50.120;8.698;2023-04-01T03:28:54;3.17;;;1.10;;
1569;SDS011;778;50.120;8.698;2023-04-01T03:31:23;4.47;;;1.30;;
1569;SDS011;778;50.120;8.698;2023-04-01T03:33:55;4.03;;;1.03;;
1569;SDS011;778;50.120;8.698;2023-04-01T03:36:23;2.87;;;1.00;;
1569;SDS011;778;50.120;8.698;2023-04-01T03:38:52;8.00;;;1.90;;
1569;SDS011;778;50.120;8.698;2023-04-01T03:41:31;2.73;;;1.03;;
1569;SDS011;778;50.120;8.698;2023-04-01T03:44:04;2.73;;;0.90;;
1569;SDS011;778;50.120;8.698;2023-04-01T03:46:33;2.63;;;1.17;;
1569;SDS011;778;50.120;8.698;2023-04-01T03:49:02;3.60;;;1.50;;
1569;SDS011;778;50.120;8.698;2023-04-01T03:51:37;11.23;;;1.53;;
1569;SDS011;778;50.120;8.698;2023-04-01T03:54:06;1.13;;;0.77;;
1569;SDS011;778;50.120;8.698;2023-04-01T03:56:37;3.23;;;1.23;;
1569;SDS011;778;50.120;8.698;2023-04-01T03:59:06;2.97;;;1.33;;
1569;SDS011;778;50.120;8.698;2023-04-01T04:01:35;5.00;;;1.07;;
1569;SDS011;778;50.120;8.698;2023-04-01T04:04:03;9.50;;;1.77;;
1569;SDS011;778;50.120;8.698;2023-04-01T04:06:32;3.60;;;1.00;;
1569;SDS011;778;50.120;8.698;2023-04-01T04:09:01;8.40;;;1.23;;
1569;SDS011;778;50.120;8.698;2023-04-01T04:11:30;3.13;;;1.80;;
1569;SDS011;778;50.120;8.698;2023-04-01T04:14:01;4.23;;;1.20;;
1569;SDS011;778;50.120;8.698;2023-04-01T04:16:29;4.50;;;1.10;;
1569;SDS011;778;50.120;8.698;2023-04-01T04:19:01;3.33;;;1.80;;
1569;SDS011;778;50.120;8.698;2023-04-01T04:21:29;3.77;;;1.40;;
1569;SDS011;778;50.120;8.698;2023-04-01T04:23:58;5.63;;;2.00;;
1569;SDS011;778;50.120;8.698;2023-04-01T04:26:43;4.20;;;1.13;;
1569;SDS011;778;50.120;8.698;2023-04-01T04:29:13;4.07;;;1.13;;
1569;SDS011;778;50.120;8.698;2023-04-01T04:31:42;3.47;;;1.47;;
1569;SDS011;778;50.120;8.698;2023-04-01T04:34:11;3.57;;;1.10;;
1569;SDS011;778;50.120;8.698;2023-04-01T04:36:39;2.90;;;1.00;;
1569;SDS011;778;50.120;8.698;2023-04-01T04:39:08;2.27;;;0.80;;
1569;SDS011;778;50.120;8.698;2023-04-01T04:41:38;3.80;;;1.67;;
1569;SDS011;778;50.120;8.698;2023-04-01T04:44:07;2.60;;;1.00;;
1569;SDS011;778;50.120;8.698;2023-04-01T04:46:37;2.40;;;0.90;;
1569;SDS011;778;50.120;8.698;2023-04-01T04:49:12;6.20;;;1.07;;
1569;SDS011;778;50.120;8.698;2023-04-01T04:51:41;3.50;;;1.10;;
1569;SDS011;778;50.120;8.698;2023-04-01T04:54:11;2.27;;;1.43;;
1569;SDS011;778;50.120;8.698;2023-04-01T04:56:50;5.50;;;1.60;;
1569;SDS011;778;50.120;8.698;2023-04-01T04:59:20;3.03;;;1.03;;
1569;SDS011;778;50.120;8.698;2023-04-01T05:01:58;2.67;;;0.90;;
1569;SDS011;778;50.120;8.698;2023-04-01T05:04:27;3.73;;;1.13;;
1569;SDS011;778;50.120;8.698;2023-04-01T05:06:56;2.67;;;1.00;;
1569;SDS011;778;50.120;8.698;2023-04-01T05:09:24;3.30;;;0.90;;
1569;SDS011;778;50.120;8.698;2023-04-01T05:11:52;1.97;;;1.17;;
1569;SDS011;778;50.120;8.698;2023-04-01T05:14:23;2.87;;;1.33;;
1569;SDS011;778;50.120;8.698;2023-04-01T05:16:59;4.07;;;0.80;;
1569;SDS011;778;50.120;8.698;2023-04-01T05:19:27;8.50;;;1.67;;
1569;SDS011;778;50.120;8.698;2023-04-01T05:21:56;1.40;;;0.80;;
1569;SDS011;778;50.120;8.698;2023-04-01T05:24:24;3.80;;;0.83;;
1569;SDS011;778;50.120;8.698;2023-04-01T05:26:53;2.73;;;0.90;;
1569;SDS011;778;50.120;8.698;2023-04-01T05:29:23;2.93;;;1.10;;
1569;SDS011;778;50.120;8.698;2023-04-01T05:32:01;3.53;;;1.10;;
1569;SDS011;778;50.120;8.698;2023-04-01T05:34:29;7.50;;;1.53;;
1569;SDS011;778;50.120;8.698;2023-04-01T05:36:58;1.73;;;1.03;;
1569;SDS011;778;50.120;8.698;2023-04-01T05:39:26;3.00;;;1.00;;
1569;SDS011;778;50.120;8.698;2023-04-01T05:41:55;3.40;;;0.87;;
1569;SDS011;778;50.120;8.698;2023-04-01T05:44:23;1.97;;;0.97;;
1569;SDS011;778;50.120;8.698;2023-04-01T05:47:13;0.93;;;0.70;;
1569;SDS011;778;50.120;8.698;2023-04-01T05:49:41;4.40;;;1.10;;
1569;SDS011;778;50.120;8.698;2023-04-01T05:52:09;5.30;;;2.57;;
1569;SDS011;778;50.120;8.698;2023-04-01T05:54:38;2.10;;;0.90;;
1569;SDS011;778;50.120;8.698;2023-04-01T05:57:06;1.90;;;0.80;;
1569;SDS011;778;50.120;8.698;2023-04-01T05:59:35;3.33;;;1.20;;
1569;SDS011;778;50.120;8.698;2023-04-01T06:02:03;2.30;;;1.23;;
1569;SDS011;778;50.120;8.698;2023-04-01T06:04:34;4.00;;;1.50;;
1569;SDS011;778;50.120;8.698;2023-04-01T06:07:13;2.83;;;0.70;;
1569;SDS011;778;50.120;8.698;2023-04-01T06:09:44;1.67;;;0.60;;
1569;SDS011;778;50.120;8.698;2023-04-01T06:12:17;3.27;;;1.03;;
1569;SDS011;778;50.120;8.698;2023-04-01T06:15:04;1.70;;;1.00;;
1569;SDS011;778;50.120;8.698;2023-04-01T06:17:48;2.33;;;0.80;;
1569;SDS011;778;50.120;8.698;2023-04-01T06:20:38;2.50;;;1.10;;
1569;SDS011;778;50.120;8.698;2023-04-01T06:23:19;1.70;;;0.80;;
1569;SDS011;778;50.120;8.698;2023-04-01T06:26:02;1.83;;;0.97;;
1569;SDS011;778;50.120;8.698;2023-04-01T06:28:56;2.40;;;0.97;;
1569;SDS011;778;50.120;8.698;2023-04-01T06:34:43;3.13;;;1.00;;
1569;SDS011;778;50.120;8.698;2023-04-01T06:37:52;3.77;;;1.00;;
1569;SDS011;778;50.120;8.698;2023-04-01T06:41:08;3.23;;;0.90;;
1569;SDS011;778;50.120;8.698;2023-04-01T06:43:56;1.80;;;0.80;;
1569;SDS011;778;50.120;8.698;2023-04-01T06:46:58;1.17;;;0.90;;
1569;SDS011;778;50.120;8.698;2023-04-01T06:50:05;2.10;;;0.73;;
1569;SDS011;778;50.120;8.698;2023-04-01T06:53:09;1.20;;;0.90;;
1569;SDS011;778;50.120;8.698;2023-04-01T06:56:16;3.20;;;0.73;;
1569;SDS011;778;50.120;8.698;2023-04-01T06:59:02;4.67;;;1.20;;
1569;SDS011;778;50.120;8.698;2023-04-01T07:01:34;3.57;;;0.80;;
1569;SDS011;778;50.120;8.698;2023-04-01T07:04:09;2.83;;;1.10;;
1569;SDS011;778;50.120;8.698;2023-04-01T07:06:43;2.40;;;0.87;;
1569;SDS011;778;50.120;8.698;2023-04-01T07:09:18;2.60;;;0.70;;
1569;SDS011;778;50.120;8.698;2023-04-01T07:12:10;2.20;;;1.27;;
1569;SDS011;778;50.120;8.698;2023-04-01T07:15:03;2.93;;;0.60;;
1569;SDS011;778;50.120;8.698;2023-04-01T07:17:41;3.37;;;1.00;;
1569;SDS011;778;50.120;8.698;2023-04-01T07:20:13;3.13;;;0.77;;
1569;SDS011;778;50.120;8.698;2023-04-01T07:22:48;1.30;;;0.63;;
1569;SDS011;778;50.120;8.698;2023-04-01T07:25:27;1.30;;;0.80;;
1569;SDS011;778;50.120;8.698;2023-04-01T07:28:29;1.97;;;1.03;;
1569;SDS011;778;50.120;8.698;2023-04-01T07:31:26;2.83;;;0.63;;
1569;SDS011;778;50.120;8.698;2023-04-01T07:34:23;3.03;;;1.33;;
1569;SDS011;778;50.120;8.698;2023-04-01T07:36:57;7.00;;;0.87;;
1569;SDS011;778;50.120;8.698;2023-04-01T07:39:34;2.50;;;1.00;;
1569;SDS011;778;50.120;8.698;2023-04-01T07:42:34;2.40;;;0.80;;
1569;SDS011;778;50.120;8.698;2023-04-01T07:45:14;6.60;;;1.30;;
1569;SDS011;778;50.120;8.698;2023-04-01T07:47:54;2.50;;;0.87;;
1569;SDS011;778;50.120;8.698;2023-04-01T07:50:44;1.73;;;0.60;;
1569;SDS011;778;50.120;8.698;2023-04-01T07:53:23;1.30;;;0.70;;
1569;SDS011;778;50.120;8.698;2023-04-01T07:56:02;3.57;;;0.90;;
1569;SDS011;778;50.120;8.698;2023-04-01T07:58:44;3.40;;;1.10;;
1569;SDS011;778;50.120;8.698;2023-04-01T08:01:43;1.90;;;0.67;;
1569;SDS011;778;50.120;8.698;2023-04-01T08:04:23;2.33;;;0.97;;
1569;SDS011;778;50.120;8.698;2023-04-01T08:07:05;1.23;;;0.70;;
1569;SDS011;778;50.120;8.698;2023-04-01T08:09:47;1.70;;;0.90;;
1569;SDS011;778;50.120;8.698;2023-04-01T08:13:02;1.70;;;0.80;;
1569;SDS011;778;50.120;8.698;2023-04-01T08:16:03;2.17;;;0.80;;
1569;SDS011;778;50.120;8.698;2023-04-01T08:18:46;3.40;;;0.87;;
1569;SDS011;778;50.120;8.698;2023-04-01T08:21:28;3.20;;;0.70;;
1569;SDS011;778;50.120;8.698;2023-04-01T08:24:05;2.20;;;0.90;;
1569;SDS011;778;50.120;8.698;2023-04-01T08:26:48;0.83;;;0.47;;
1569;SDS011;778;50.120;8.698;2023-04-01T08:29:22;1.93;;;1.00;;
1569;SDS011;778;50.120;8.698;2023-04-01T08:31:56;1.40;;;0.73;;
1569;SDS011;778;50.120;8.698;2023-04-01T08:34:32;2.30;;;1.20;;
1569;SDS011;778;50.120;8.698;2023-04-01T08:37:10;1.40;;;0.80;;
1569;SDS011;778;50.120;8.698;2023-04-01T08:39:49;3.57;;;0.90;;
1569;SDS011;778;50.120;8.698;2023-04-01T08:42:33;1.60;;;0.83;;
1569;SDS011;778;50.120;8.698;2023-04-01T08:48:37;1.03;;;0.60;;
1569;SDS011;778;50.120;8.698;2023-04-01T08:51:35;1.13;;;1.03;;
1569;SDS011;778;50.120;8.698;2023-04-01T08:54:39;0.90;;;0.60;;
1569;SDS011;778;50.120;8.698;2023-04-01T08:57:56;2.33;;;1.00;;
1569;SDS011;778;50.120;8.698;2023-04-01T09:01:24;0.63;;;0.63;;
1569;SDS011;778;50.120;8.698;2023-04-01T09:04:57;2.03;;;1.10;;
1569;SDS011;778;50.120;8.698;2023-04-01T09:07:51;3.00;;;0.90;;
1569;SDS011;778;50.120;8.698;2023-04-01T09:10:39;3.13;;;0.97;;
1569;SDS011;778;50.120;8.698;2023-04-01T09:23:09;1.10;;;1.00;;
1569;SDS011;778;50.120;8.698;2023-04-01T09:25:58;2.93;;;1.00;;
1569;SDS011;778;50.120;8.698;2023-04-01T09:28:48;1.43;;;0.90;;
1569;SDS011;778;50.120;8.698;2023-04-01T09:31:32;1.27;;;0.93;;
1569;SDS011;778;50.120;8.698;2023-04-01T09:34:51;2.60;;;1.00;;
1569;SDS011;778;50.120;8.698;2023-04-01T09:37:32;0.97;;;0.70;;
1569;SDS011;778;50.120;8.698;2023-04-01T09:40:20;1.43;;;0.83;;
1569;SDS011;778;50.120;8.698;2023-04-01T09:43:06;1.10;;;1.00;;
1569;SDS011;778;50.120;8.698;2023-04-01T09:46:14;3.90;;;0.90;;
1569;SDS011;778;50.120;8.698;2023-04-01T09:48:57;1.63;;;0.90;;
1569;SDS011;778;50.120;8.698;2023-04-01T09:51:44;1.50;;;0.80;;
1569;SDS011;778;50.120;8.698;2023-04-01T09:54:31;0.80;;;0.70;;
1569;SDS011;778;50.120;8.698;2023-04-01T09:57:29;1.20;;;0.70;;
1569;SDS011;778;50.120;8.698;2023-04-01T10:10:35;1.90;;;0.90;;
1569;SDS011;778;50.120;8.698;2023-04-01T10:14:01;3.53;;;1.87;;
1569;SDS011;778;50.120;8.698;2023-04-01T10:17:03;0.87;;;0.57;;
1569;SDS011;778;50.120;8.698;2023-04-01T10:20:18;1.20;;;0.50;;
1569;SDS011;778;50.120;8.698;2023-04-01T10:23:11;0.77;;;0.77;;
1569;SDS011;778;50.120;8.698;2023-04-01T10:26:07;1.37;;;0.80;;
1569;SDS011;778;50.120;8.698;2023-04-01T10:32:32;0.70;;;0.70;;
1569;SDS011;778;50.120;8.698;2023-04-01T10:36:03;2.50;;;1.00;;
1569;SDS011;778;50.120;8.698;2023-04-01T10:42:47;1.87;;;1.10;;
1569;SDS011;778;50.120;8.698;2023-04-01T10:46:14;1.03;;;0.93;;
1569;SDS011;778;50.120;8.698;2023-04-01T10:56:29;0.93;;;0.77;;
1569;SDS011;778;50.120;8.698;2023-04-01T11:07:06;1.63;;;1.00;;
1569;SDS011;778;50.120;8.698;2023-04-01T11:10:54;1.30;;;1.20;;
1569;SDS011;778;50.120;8.698;2023-04-01T11:13:57;1.30;;;1.20;;
1569;SDS011;778;50.120;8.698;2023-04-01T11:20:39;0.90;;;0.80;;
1569;SDS011;778;50.120;8.698;2023-04-01T11:23:29;1.27;;;1.03;;
1569;SDS011;778;50.120;8.698;2023-04-01T11:26:39;0.90;;;0.90;;
1569;SDS011;778;50.120;8.698;2023-04-01T11:32:46;1.30;;;0.93;;
1569;SDS011;778;50.120;8.698;2023-04-01T11:38:26;2.67;;;1.77;;
1569;SDS011;778;50.120;8.698;2023-04-01T11:41:31;1.73;;;1.63;;
1569;SDS011;778;50.120;8.698;2023-04-01T11:44:32;1.40;;;1.30;;
1569;SDS011;778;50.120;8.698;2023-04-01T11:47:18;1.60;;;1.50;;
1569;SDS011;778;50.120;8.698;2023-04-01T11:50:09;1.30;;;1.20;;
1569;SDS011;778;50.120;8.698;2023-04-01T11:52:55;1.57;;;1.10;;
1569;SDS011;778;50.120;8.698;2023-04-01T11:55:41;3.40;;;1.20;;
1569;SDS011;778;50.120;8.698;2023-04-01T11:58:40;1.63;;;1.53;;
1569;SDS011;778;50.120;8.698;2023-04-01T12:01:27;1.60;;;1.40;;
1569;SDS011;778;50.120;8.698;2023-04-01T12:10:38;0.57;;;0.37;;
1569;SDS011;778;50.120;8.698;2023-04-01T12:13:13;0.80;;;0.57;;
1569;SDS011;778;50.120;8.698;2023-04-01T12:18:59;1.00;;;0.80;;
1569;SDS011;778;50.120;8.698;2023-04-01T12:21:37;0.50;;;0.50;;
1569;SDS011;778;50.120;8.698;2023-04-01T12:24:20;1.07;;;0.60;;
1569;SDS011;778;50.120;8.698;2023-04-01T12:30:10;0.80;;;0.80;;
1569;SDS011;778;50.120;8.698;2023-04-01T12:33:14;1.07;;;0.90;;
1569;SDS011;778;50.120;8.698;2023-04-01T12:36:12;1.00;;;0.80;;
1569;SDS011;778;50.120;8.698;2023-04-01T12:38:57;1.23;;;1.10;;
1569;SDS011;778;50.120;8.698;2023-04-01T12:41:46;1.07;;;0.80;;
1569;SDS011;778;50.120;8.698;2023-04-01T12:44:25;0.70;;;0.70;;
1569;SDS011;778;50.120;8.698;2023-04-01T12:47:26;0.97;;;0.97;;
1569;SDS011;778;50.120;8.698;2023-04-01T12:50:31;2.23;;;0.80;;
1569;SDS011;778;50.120;8.698;2023-04-01T12:53:26;1.50;;;0.90;;
1569;SDS011;778;50.120;8.698;2023-04-01T12:56:09;1.40;;;0.87;;
1569;SDS011;778;50.120;8.698;2023-04-01T12:59:03;1.00;;;1.00;;
1569;SDS011;778;50.120;8.698;2023-04-01T13:01:59;1.30;;;1.20;;
1569;SDS011;778;50.120;8.698;2023-04-01T13:04:50;2.40;;;0.90;;
1569;SDS011;778;50.120;8.698;2023-04-01T13:07:49;1.23;;;1.00;;
1569;SDS011;778;50.120;8.698;2023-04-01T13:10:31;1.00;;;0.90;;
1569;SDS011;778;50.120;8.698;2023-04-01T13:13:23;1.67;;;1.13;;
1569;SDS011;778;50.120;8.698;2023-04-01T13:16:25;0.97;;;0.97;;
1569;SDS011;778;50.120;8.698;2023-04-01T13:18:58;1.40;;;1.30;;
1569;SDS011;778;50.120;8.698;2023-04-01T13:21:34;2.47;;;1.27;;
1569;SDS011;778;50.120;8.698;2023-04-01T13:24:17;1.73;;;1.63;;
1569;SDS011;778;50.120;8.698;2023-04-01T13:27:00;2.87;;;1.90;;
1569;SDS011;778;50.120;8.698;2023-04-01T13:29:38;2.10;;;1.90;;
1569;SDS011;778;50.120;8.698;2023-04-01T13:32:15;2.70;;;2.07;;
1569;SDS011;778;50.120;8.698;2023-04-01T13:35:17;1.77;;;1.63;;
1569;SDS011;778;50.120;8.698;2023-04-01T13:38:00;1.70;;;1.43;;
1569;SDS011;778;50.120;8.698;2023-04-01T13:41:09;2.10;;;0.80;;
1569;SDS011;778;50.120;8.698;2023-04-01T13:43:50;4.03;;;2.33;;
1569;SDS011;778;50.120;8.698;2023-04-01T13:49:39;4.53;;;3.70;;
1569;SDS011;778;50.120;8.698;2023-04-01T13:55:26;2.30;;;2.10;;
1569;SDS011;778;50.120;8.698;2023-04-01T13:58:23;2.80;;;2.27;;
1569;SDS011;778;50.120;8.698;2023-04-01T14:01:19;1.83;;;1.73;;
1569;SDS011;778;50.120;8.698;2023-04-01T14:04:07;2.53;;;2.10;;
1569;SDS011;778;50.120;8.698;2023-04-01T14:07:11;3.33;;;3.13;;
1569;SDS011;778;50.120;8.698;2023-04-01T14:10:08;4.50;;;3.70;;
1569;SDS011;778;50.120;8.698;2023-04-01T14:12:51;2.53;;;2.33;;
1569;SDS011;778;50.120;8.698;2023-04-01T14:15:40;2.13;;;1.93;;
1569;SDS011;778;50.120;8.698;2023-04-01T14:18:25;1.70;;;1.43;;
1569;SDS011;778;50.120;8.698;2023-04-01T14:21:23;1.90;;;1.10;;
1569;SDS011;778;50.120;8.698;2023-04-01T14:27:09;0.83;;;0.83;;
1569;SDS011;778;50.120;8.698;2023-04-01T14:30:27;1.30;;;1.20;;
1569;SDS011;778;50.120;8.698;2023-04-01T14:33:24;2.93;;;1.17;;
1569;SDS011;778;50.120;8.698;2023-04-01T14:36:12;2.80;;;1.83;;
1569;SDS011;778;50.120;8.698;2023-04-01T14:39:01;1.50;;;1.40;;
1569;SDS011;778;50.120;8.698;2023-04-01T14:41:48;2.50;;;0.87;;
1569;SDS011;778;50.120;8.698;2023-04-01T14:44:43;1.93;;;1.40;;
1569;SDS011;778;50.120;8.698;2023-04-01T14:47:51;1.57;;;1.47;;
1569;SDS011;778;50.120;8.698;2023-04-01T14:50:23;3.17;;;2.20;;
1569;SDS011;778;50.120;8.698;2023-04-01T14:52:59;4.50;;;3.30;;
1569;SDS011;778;50.120;8.698;2023-04-01T14:55:46;4.50;;;3.53;;
1569;SDS011;778;50.120;8.698;2023-04-01T14:58:19;2.53;;;2.30;;
1569;SDS011;778;50.120;8.698;2023-04-01T15:00:55;2.73;;;2.13;;
1569;SDS011;778;50.120;8.698;2023-04-01T15:03:40;1.60;;;1.30;;
1569;SDS011;778;50.120;8.698;2023-04-01T15:06:30;2.53;;;1.67;;
1569;SDS011;778;50.120;8.698;2023-04-01T15:09:14;1.67;;;1.43;;
1569;SDS011;778;50.120;8.698;2023-04-01T15:11:56;1.50;;;1.13;;
1569;SDS011;778;50.120;8.698;2023-04-01T15:14:42;2.97;;;1.73;;
1569;SDS011;778;50.120;8.698;2023-04-01T15:17:29;2.10;;;1.20;;
1569;SDS011;778;50.120;8.698;2023-04-01T15:26:16;1.07;;;0.97;;
1569;SDS011;778;50.120;8.698;2023-04-01T15:29:08;3.00;;;1.87;;
1569;SDS011;778;50.120;8.698;2023-04-01T15:32:04;1.47;;;1.00;;
1569;SDS011;778;50.120;8.698;2023-04-01T15:34:46;1.47;;;1.30;;
1569;SDS011;778;50.120;8.698;2023-04-01T15:37:25;0.80;;;0.80;;
1569;SDS011;778;50.120;8.698;2023-04-01T15:40:07;2.20;;;1.20;;
1569;SDS011;778;50.120;8.698;2023-04-01T15:45:50;1.63;;;1.53;;
1569;SDS011;778;50.120;8.698;2023-04-01T15:48:30;1.30;;;1.10;;
1569;SDS011;778;50.120;8.698;2023-04-01T15:51:20;2.20;;;1.20;;
1569;SDS011;778;50.120;8.698;2023-04-01T15:54:11;2.00;;;1.90;;
1569;SDS011;778;50.120;8.698;2023-04-01T15:57:20;3.13;;;2.07;;
1569;SDS011;778;50.120;8.698;2023-04-01T16:00:10;2.43;;;1.87;;
1569;SDS011;778;50.120;8.698;2023-04-01T16:02:51;2.30;;;1.53;;
1569;SDS011;778;50.120;8.698;2023-04-01T16:05:41;2.83;;;1.53;;
1569;SDS011;778;50.120;8.698;2023-04-01T16:08:33;2.43;;;2.20;;
1569;SDS011;778;50.120;8.698;2023-04-01T16:11:18;2.90;;;2.60;;
1569;SDS011;778;50.120;8.698;2023-04-01T16:14:05;2.10;;;1.90;;
1569;SDS011;778;50.120;8.698;2023-04-01T16:16:52;5.30;;;3.83;;
1569;SDS011;778;50.120;8.698;2023-04-01T16:19:46;2.57;;;2.13;;
1569;SDS011;778;50.120;8.698;2023-04-01T16:22:21;5.00;;;2.80;;
1569;SDS011;778;50.120;8.698;2023-04-01T16:24:54;2.50;;;2.30;;
1569;SDS011;778;50.120;8.698;2023-04-01T16:27:35;2.73;;;2.00;;
1569;SDS011;778;50.120;8.698;2023-04-01T16:30:22;3.43;;;2.80;;
1569;SDS011;778;50.120;8.698;2023-04-01T16:33:04;2.93;;;1.80;;
1569;SDS011;778;50.120;8.698;2023-04-01T16:35:41;5.00;;;2.33;;
1569;SDS011;778;50.120;8.698;2023-04-01T16:38:16;2.67;;;2.40;;
1569;SDS011;778;50.120;8.698;2023-04-01T16:40:57;1.93;;;1.77;;
1569;SDS011;778;50.120;8.698;2023-04-01T16:43:42;4.13;;;2.20;;
1569;SDS011;778;50.120;8.698;2023-04-01T16:46:26;1.70;;;1.60;;
1569;SDS011;778;50.120;8.698;2023-04-01T16:49:02;2.50;;;2.30;;
1569;SDS011;778;50.120;8.698;2023-04-01T16:51:46;4.00;;;2.00;;
1569;SDS011;778;50.120;8.698;2023-04-01T16:54:27;1.90;;;1.80;;
1569;SDS011;778;50.120;8.698;2023-04-01T16:57:02;2.00;;;1.70;;
1569;SDS011;778;50.120;8.698;2023-04-01T16:59:47;2.40;;;1.90;;
1569;SDS011;778;50.120;8.698;2023-04-01T17:02:25;2.40;;;1.70;;
1569;SDS011;778;50.120;8.698;2023-04-01T17:05:00;3.00;;;2.80;;
1569;SDS011;778;50.120;8.698;2023-04-01T17:07:35;3.03;;;1.83;;
1569;SDS011;778;50.120;8.698;2023-04-01T17:16:28;2.93;;;2.37;;
1569;SDS011;778;50.120;8.698;2023-04-01T17:22:31;2.23;;;2.03;;
1569;SDS011;778;50.120;8.698;2023-04-01T17:25:11;1.90;;;1.80;;
1569;SDS011;778;50.120;8.698;2023-04-01T17:28:05;3.77;;;3.10;;
1569;SDS011;778;50.120;8.698;2023-04-01T17:30:45;5.57;;;3.43;;
1569;SDS011;778;50.120;8.698;2023-04-01T17:33:31;6.20;;;4.70;;
1569;SDS011;778;50.120;8.698;2023-04-01T17:36:13;7.13;;;6.03;;
1569;SDS011;778;50.120;8.698;2023-04-01T17:39:08;5.00;;;3.23;;
1569;SDS011;778;50.120;8.698;2023-04-01T17:41:54;3.43;;;3.13;;
1569;SDS011;778;50.120;8.698;2023-04-01T17:44:34;1.90;;;1.70;;
1569;SDS011;778;50.120;8.698;2023-04-01T17:47:21;1.97;;;1.80;;
1569;SDS011;778;50.120;8.698;2023-04-01T17:50:10;2.40;;;1.43;;
1569;SDS011;778;50.120;8.698;2023-04-01T17:52:52;2.27;;;2.07;;
1569;SDS011;778;50.120;8.698;2023-04-01T17:55:43;2.47;;;2.27;;
1569;SDS011;778;50.120;8.698;2023-04-01T17:58:22;3.50;;;2.70;;
1569;SDS011;778;50.120;8.698;2023-04-01T18:01:03;3.33;;;2.83;;
1569;SDS011;778;50.120;8.698;2023-04-01T18:03:54;2.70;;;2.40;;
1569;SDS011;778;50.120;8.698;2023-04-01T18:06:42;4.30;;;2.60;;
1569;SDS011;778;50.120;8.698;2023-04-01T18:09:28;3.97;;;3.43;;
1569;SDS011;778;50.120;8.698;2023-04-01T18:12:12;3.93;;;2.97;;
1569;SDS011;778;50.120;8.698;2023-04-01T18:14:53;4.67;;;2.80;;
1569;SDS011;778;50.120;8.698;2023-04-01T18:17:47;3.90;;;3.30;;
1569;SDS011;778;50.120;8.698;2023-04-01T18:20:33;2.60;;;2.00;;
1569;SDS011;778;50.120;8.698;2023-04-01T18:23:14;2.53;;;1.90;;
1569;SDS011;778;50.120;8.698;2023-04-01T18:25:54;3.37;;;2.43;;
1569;SDS011;778;50.120;8.698;2023-04-01T18:28:35;3.40;;;2.37;;
1569;SDS011;778;50.120;8.698;2023-04-01T18:31:07;3.63;;;2.60;;
1569;SDS011;778;50.120;8.698;2023-04-01T18:33:47;3.57;;;2.57;;
1569;SDS011;778;50.120;8.698;2023-04-01T18:36:26;5.40;;;3.60;;
1569;SDS011;778;50.120;8.698;2023-04-01T18:39:09;3.77;;;2.87;;
1569;SDS011;778;50.120;8.698;2023-04-01T18:41:47;3.10;;;2.30;;
1569;SDS011;778;50.120;8.698;2023-04-01T18:44:27;2.90;;;2.27;;
1569;SDS011;778;50.120;8.698;2023-04-01T18:47:07;3.20;;;2.83;;